createdAt,value
2019-06-08T00:00:24.629Z,0.65
2019-06-08T00:02:53.330Z,0.60
2019-06-08T00:05:23.018Z,1.00
2019-06-08T00:07:51.497Z,0.65
2019-06-08T00:10:22.730Z,0.45
2019-06-08T00:12:50.137Z,0.60
2019-06-08T00:15:20.297Z,0.72
2019-06-08T00:17:48.765Z,0.60
2019-06-08T00:20:17.691Z,0.60
2019-06-08T00:22:46.153Z,0.60
2019-06-08T00:25:15.791Z,0.70
2019-06-08T00:27:44.230Z,0.65
2019-06-08T00:30:13.104Z,0.80
2019-06-08T00:32:41.495Z,0.70
2019-06-08T00:35:10.055Z,0.70
2019-06-08T00:37:38.442Z,0.70
2019-06-08T00:40:07.962Z,0.60
2019-06-08T00:42:36.341Z,0.57
2019-06-08T00:45:07.780Z,0.80
2019-06-08T00:47:47.380Z,0.70
2019-06-08T00:50:07.748Z,0.80
2019-06-08T00:52:36.158Z,0.70
2019-06-08T00:55:06.103Z,0.70
2019-06-08T00:57:34.532Z,0.80
2019-06-08T01:00:10.386Z,0.70
2019-06-08T01:02:35.071Z,0.70
2019-06-08T01:05:04.659Z,0.72
2019-06-08T01:07:33.103Z,0.60
2019-06-08T01:10:01.823Z,0.70
2019-06-08T01:12:30.176Z,0.70
2019-06-08T01:14:58.585Z,0.80
2019-06-08T01:17:27.492Z,0.72
2019-06-08T01:19:56.068Z,0.82
2019-06-08T01:22:25.555Z,0.70
2019-06-08T01:24:54.053Z,0.60
2019-06-08T01:27:22.444Z,0.75
2019-06-08T01:29:50.855Z,0.60
2019-06-08T01:32:20.289Z,0.65
2019-06-08T01:34:48.907Z,0.60
2019-06-08T01:37:17.331Z,0.68
2019-06-08T01:39:45.711Z,0.50
2019-06-08T01:42:14.099Z,0.90
2019-06-08T01:44:42.477Z,0.68
2019-06-08T01:47:10.865Z,0.45
2019-06-08T01:49:39.240Z,0.75
2019-06-08T01:52:07.933Z,0.70
2019-06-08T01:54:36.627Z,0.60
2019-06-08T01:57:05.007Z,0.57
2019-06-08T01:59:34.785Z,0.50
2019-06-08T02:02:03.296Z,0.53
2019-06-08T02:04:33.199Z,0.60
2019-06-08T02:07:02.492Z,0.70
2019-06-08T02:09:30.869Z,0.60
2019-06-08T02:11:59.566Z,0.57
2019-06-08T02:14:29.136Z,0.62
2019-06-08T02:16:57.852Z,0.50
2019-06-08T02:19:26.650Z,0.62
2019-06-08T02:21:55.354Z,0.70
2019-06-08T02:24:23.733Z,0.50
2019-06-08T02:26:52.413Z,0.60
2019-06-08T02:29:20.791Z,0.82
2019-06-08T02:31:49.178Z,0.60
2019-06-08T02:34:17.561Z,0.80
2019-06-08T02:36:45.945Z,0.80
2019-06-08T02:39:14.323Z,0.78
2019-06-08T02:41:42.713Z,0.70
2019-06-08T02:44:11.357Z,0.90
2019-06-08T02:46:40.492Z,0.70
2019-06-08T02:49:09.075Z,0.70
2019-06-08T02:51:38.547Z,0.70
2019-06-08T02:54:06.927Z,0.57
2019-06-08T02:56:36.806Z,0.80
2019-06-08T02:59:06.451Z,0.75
2019-06-08T03:01:35.958Z,0.80
2019-06-08T03:04:05.192Z,0.53
2019-06-08T03:06:37.412Z,0.70
2019-06-08T03:09:07.651Z,0.42
2019-06-08T03:11:36.997Z,0.60
2019-06-08T03:14:06.189Z,0.50
2019-06-08T03:16:35.871Z,0.60
2019-06-08T03:19:20.565Z,0.70
2019-06-08T03:21:36.315Z,0.72
2019-06-08T03:24:05.315Z,0.70
2019-06-08T03:26:34.316Z,0.60
2019-06-08T03:29:02.938Z,0.68
2019-06-08T03:31:34.419Z,0.75
2019-06-08T03:34:01.901Z,0.80
2019-06-08T03:36:30.279Z,0.68
2019-06-08T03:38:58.686Z,0.80
2019-06-08T03:41:27.541Z,0.60
2019-06-08T03:43:56.098Z,0.78
2019-06-08T03:46:24.807Z,0.68
2019-06-08T03:48:53.198Z,0.70
2019-06-08T03:51:21.603Z,0.60
2019-06-08T03:53:49.965Z,0.70
2019-06-08T03:56:18.447Z,0.70
2019-06-08T03:58:48.030Z,0.60
2019-06-08T04:01:16.926Z,0.60
2019-06-08T04:03:46.220Z,0.80
2019-06-08T04:06:14.861Z,0.70
2019-06-08T04:08:46.574Z,0.70
2019-06-08T04:11:13.385Z,0.80
2019-06-08T04:13:42.095Z,0.80
2019-06-08T04:16:11.024Z,0.60
2019-06-08T04:18:40.358Z,1.00
2019-06-08T04:21:09.534Z,0.85
2019-06-08T04:23:40.032Z,0.62
2019-06-08T04:26:08.642Z,0.85
2019-06-08T04:28:38.333Z,0.68
2019-06-08T04:31:06.880Z,0.70
2019-06-08T04:33:35.635Z,0.60
2019-06-08T04:36:04.309Z,0.80
2019-06-08T04:38:32.689Z,0.80
2019-06-08T04:41:01.065Z,0.70
2019-06-08T04:43:29.500Z,0.70
2019-06-08T04:45:57.869Z,0.70
2019-06-08T04:48:26.256Z,0.78
2019-06-08T04:50:54.896Z,1.00
2019-06-08T04:53:23.301Z,0.80
2019-06-08T04:55:51.676Z,1.00
2019-06-08T04:58:20.056Z,0.88
2019-06-08T05:00:50.702Z,0.78
2019-06-08T05:03:18.694Z,0.60
2019-06-08T05:05:47.722Z,0.85
2019-06-08T05:08:17.457Z,0.60
2019-06-08T05:10:47.275Z,0.70
2019-06-08T05:13:15.925Z,0.70
2019-06-08T05:15:45.430Z,0.88
2019-06-08T05:18:14.127Z,0.90
2019-06-08T05:20:45.330Z,0.88
2019-06-08T05:23:12.647Z,1.10
2019-06-08T05:25:41.238Z,0.65
2019-06-08T05:28:09.586Z,0.62
2019-06-08T05:30:39.298Z,1.00
2019-06-08T05:33:07.879Z,0.90
2019-06-08T05:35:36.603Z,0.70
2019-06-08T05:38:05.495Z,0.80
2019-06-08T05:40:33.924Z,0.90
2019-06-08T05:43:02.564Z,0.85
2019-06-08T05:45:30.955Z,0.70
2019-06-08T05:47:59.336Z,0.90
2019-06-08T05:50:28.005Z,0.78
2019-06-08T05:52:56.798Z,0.82
2019-06-08T05:55:25.188Z,0.80
2019-06-08T05:57:53.571Z,0.82
2019-06-08T06:00:22.203Z,0.80
2019-06-08T06:02:50.992Z,0.80
2019-06-08T06:05:19.821Z,0.80
2019-06-08T06:07:49.032Z,0.95
2019-06-08T06:10:17.664Z,0.70
2019-06-08T06:12:46.923Z,0.90
2019-06-08T06:15:16.276Z,0.88
2019-06-08T06:17:46.585Z,0.78
2019-06-08T06:20:15.631Z,1.00
2019-06-08T06:22:45.711Z,0.88
2019-06-08T06:25:14.561Z,0.80
2019-06-08T06:27:43.419Z,0.80
2019-06-08T06:30:12.854Z,0.90
2019-06-08T06:32:41.740Z,0.88
2019-06-08T06:35:10.564Z,0.82
2019-06-08T06:37:39.210Z,0.88
2019-06-08T06:40:08.740Z,0.60
2019-06-08T06:42:37.392Z,0.72
2019-06-08T06:45:09.444Z,0.88
2019-06-08T06:47:37.823Z,0.80
2019-06-08T06:50:08.220Z,0.90
2019-06-08T06:52:36.606Z,0.70
2019-06-08T06:55:07.590Z,0.70
2019-06-08T06:57:36.821Z,1.00
2019-06-08T07:00:09.679Z,0.90
2019-06-08T07:02:38.231Z,0.88
2019-06-08T07:05:07.858Z,0.80
2019-06-08T07:07:36.675Z,0.90
2019-06-08T07:10:08.437Z,0.90
2019-06-08T07:12:37.128Z,0.80
2019-06-08T07:15:08.722Z,0.93
2019-06-08T07:17:37.434Z,0.90
2019-06-08T07:20:07.537Z,0.90
2019-06-08T07:22:36.087Z,1.12
2019-06-08T07:25:05.030Z,1.00
2019-06-08T07:27:33.459Z,0.80
2019-06-08T07:30:01.908Z,0.80
2019-06-08T07:32:30.346Z,0.65
2019-06-08T07:34:59.424Z,0.90
2019-06-08T07:37:27.867Z,1.00
2019-06-08T07:39:56.556Z,0.98
2019-06-08T07:42:24.925Z,1.05
2019-06-08T07:44:53.306Z,1.10
2019-06-08T07:47:21.743Z,1.00
2019-06-08T07:49:51.154Z,1.12
2019-06-08T07:52:19.630Z,0.90
2019-06-08T07:54:49.714Z,0.93
2019-06-08T07:57:18.472Z,0.90
2019-06-08T07:59:47.579Z,0.88
2019-06-08T08:02:17.014Z,1.10
2019-06-08T08:04:45.433Z,0.72
2019-06-08T08:07:14.149Z,0.93
2019-06-08T08:09:42.822Z,0.70
2019-06-08T08:12:12.437Z,0.90
2019-06-08T08:14:40.964Z,1.02
2019-06-08T08:17:10.052Z,0.75
2019-06-08T08:19:38.427Z,0.90
2019-06-08T08:22:22.370Z,0.93
2019-06-08T08:24:38.616Z,0.90
2019-06-08T08:27:08.365Z,1.00
2019-06-08T08:29:38.271Z,0.85
2019-06-08T08:32:07.551Z,0.90
2019-06-08T08:34:38.227Z,0.90
2019-06-08T08:37:09.537Z,0.80
2019-06-08T08:39:37.655Z,0.82
2019-06-08T08:42:08.482Z,1.10
2019-06-08T08:44:38.033Z,0.95
2019-06-08T08:47:07.703Z,1.07
2019-06-08T08:49:38.068Z,0.95
2019-06-08T08:52:11.187Z,1.10
2019-06-08T08:54:37.724Z,0.72
2019-06-08T08:57:08.384Z,1.00
2019-06-08T08:59:38.241Z,1.15
2019-06-08T09:02:11.001Z,1.00
2019-06-08T09:04:38.288Z,1.05
2019-06-08T09:07:09.964Z,0.82
2019-06-08T09:09:38.704Z,0.80
2019-06-08T09:12:08.322Z,0.75
2019-06-08T09:14:38.681Z,0.70
2019-06-08T09:17:08.609Z,0.90
2019-06-08T09:19:38.164Z,0.95
2019-06-08T09:22:08.509Z,1.17
2019-06-08T09:24:39.060Z,0.85
2019-06-08T09:27:08.180Z,0.82
2019-06-08T09:29:38.804Z,0.90
2019-06-08T09:32:08.238Z,0.82
2019-06-08T09:34:38.647Z,0.95
2019-06-08T09:37:08.242Z,0.80
2019-06-08T09:39:38.563Z,0.60
2019-06-08T09:42:09.034Z,0.88
2019-06-08T09:44:37.816Z,0.90
2019-06-08T09:47:12.425Z,0.90
2019-06-08T09:49:37.690Z,0.75
2019-06-08T09:52:08.565Z,0.80
2019-06-08T09:54:38.528Z,0.90
2019-06-08T09:57:09.157Z,0.75
2019-06-08T09:59:38.576Z,1.70
2019-06-08T10:02:12.462Z,0.90
2019-06-08T10:04:38.691Z,0.70
2019-06-08T10:07:08.837Z,0.90
2019-06-08T10:09:38.123Z,0.72
2019-06-08T10:12:09.721Z,0.70
2019-06-08T10:14:37.970Z,0.68
2019-06-08T10:17:08.815Z,0.85
2019-06-08T10:19:36.788Z,0.93
2019-06-08T10:22:05.255Z,0.60
2019-06-08T10:24:33.977Z,0.70
2019-06-08T10:27:03.548Z,0.60
2019-06-08T10:29:32.455Z,0.70
2019-06-08T10:32:01.582Z,0.90
2019-06-08T10:34:30.087Z,0.72
2019-06-08T10:37:03.399Z,0.75
2019-06-08T10:39:28.585Z,0.70
2019-06-08T10:41:59.893Z,1.10
2019-06-08T10:44:28.385Z,0.72
2019-06-08T10:47:00.363Z,0.95
2019-06-08T10:49:28.638Z,0.80
2019-06-08T10:52:01.177Z,0.80
2019-06-08T10:54:27.783Z,0.70
2019-06-08T10:56:59.647Z,0.78
2019-06-08T10:59:28.808Z,0.80
2019-06-08T11:02:01.019Z,0.68
2019-06-08T11:04:28.652Z,0.95
2019-06-08T11:07:01.016Z,0.88
2019-06-08T11:09:28.511Z,0.70
2019-06-08T11:11:58.405Z,0.78
2019-06-08T11:14:27.326Z,0.93
2019-06-08T11:16:55.729Z,0.88
2019-06-08T11:19:26.459Z,0.70
2019-06-08T11:21:54.360Z,0.80
2019-06-08T11:24:25.198Z,0.90
2019-06-08T11:26:52.860Z,0.68
2019-06-08T11:29:21.245Z,1.00
2019-06-08T11:31:51.031Z,0.82
2019-06-08T11:34:21.910Z,0.80
2019-06-08T11:36:51.614Z,0.93
2019-06-08T11:39:19.864Z,0.70
2019-06-08T11:41:48.515Z,0.70
2019-06-08T11:44:17.949Z,0.95
2019-06-08T11:46:47.765Z,0.70
2019-06-08T11:49:18.581Z,0.82
2019-06-08T11:51:47.872Z,1.10
2019-06-08T11:54:29.496Z,1.00
2019-06-08T11:56:48.232Z,1.00
2019-06-08T11:59:17.367Z,0.80
2019-06-08T12:01:45.753Z,0.93
2019-06-08T12:04:18.236Z,0.90
2019-06-08T12:06:48.347Z,0.95
2019-06-08T12:09:18.869Z,0.80
2019-06-08T12:11:48.057Z,0.93
2019-06-08T12:14:17.705Z,1.05
2019-06-08T12:16:48.521Z,0.98
2019-06-08T12:19:17.987Z,1.00
2019-06-08T12:21:49.682Z,1.02
2019-06-08T12:24:16.981Z,2.12
2019-06-08T12:26:47.591Z,1.10
2019-06-08T12:29:16.680Z,0.90
2019-06-08T12:31:45.986Z,1.02
2019-06-08T12:34:16.251Z,1.10
2019-06-08T12:36:44.799Z,0.90
2019-06-08T12:39:14.278Z,0.70
2019-06-08T12:41:42.745Z,1.20
2019-06-08T12:44:13.819Z,1.00
2019-06-08T12:46:41.567Z,0.82
2019-06-08T12:49:11.688Z,0.90
2019-06-08T12:51:40.400Z,1.00
2019-06-08T12:54:11.060Z,0.98
2019-06-08T12:56:38.902Z,0.70
2019-06-08T12:59:11.832Z,1.10
2019-06-08T13:01:38.153Z,0.90
2019-06-08T13:04:07.401Z,0.90
2019-06-08T13:06:37.786Z,0.98
2019-06-08T13:09:08.998Z,0.98
2019-06-08T13:11:36.741Z,0.90
2019-06-08T13:14:05.157Z,1.00
2019-06-08T13:16:34.013Z,0.90
2019-06-08T13:19:02.408Z,0.90
2019-06-08T13:21:35.088Z,1.07
2019-06-08T13:24:00.939Z,0.72
2019-06-08T13:26:31.102Z,1.00
2019-06-08T13:29:00.562Z,0.90
2019-06-08T13:31:29.509Z,1.10
2019-06-08T13:33:58.622Z,0.93
2019-06-08T13:36:29.532Z,0.93
2019-06-08T13:38:57.184Z,1.00
2019-06-08T13:41:27.207Z,1.12
2019-06-08T13:43:57.561Z,1.02
2019-06-08T13:46:27.967Z,0.90
2019-06-08T13:48:58.372Z,1.00
2019-06-08T13:51:28.167Z,0.80
2019-06-08T13:53:58.185Z,0.72
2019-06-08T13:56:28.456Z,1.10
2019-06-08T13:58:56.700Z,1.02
2019-06-08T14:01:30.476Z,1.15
2019-06-08T14:03:57.800Z,0.90
2019-06-08T14:06:25.613Z,1.10
2019-06-08T14:08:54.256Z,1.05
2019-06-08T14:11:24.095Z,0.93
2019-06-08T14:13:53.691Z,0.93
2019-06-08T14:16:23.811Z,0.90
2019-06-08T14:18:52.585Z,0.93
2019-06-08T14:21:28.002Z,1.20
2019-06-08T14:23:51.113Z,1.30
2019-06-08T14:26:21.639Z,1.07
2019-06-08T14:28:50.483Z,1.20
2019-06-08T14:31:22.375Z,1.05
2019-06-08T14:33:49.922Z,1.30
2019-06-08T14:36:21.183Z,0.90
2019-06-08T14:38:49.275Z,1.00
2019-06-08T14:41:19.424Z,0.80
2019-06-08T14:43:50.800Z,1.00
2019-06-08T14:46:21.098Z,1.00
2019-06-08T14:48:49.097Z,1.37
2019-06-08T14:51:18.725Z,0.80
2019-06-08T14:53:48.573Z,0.75
2019-06-08T14:56:19.365Z,1.05
2019-06-08T14:58:48.297Z,1.00
2019-06-08T15:01:19.451Z,0.88
2019-06-08T15:03:48.156Z,1.35
2019-06-08T15:06:17.832Z,0.95
2019-06-08T15:08:50.089Z,1.10
2019-06-08T15:11:17.945Z,1.07
2019-06-08T15:13:48.754Z,1.27
2019-06-08T15:16:18.151Z,1.10
2019-06-08T15:18:46.805Z,0.90
2019-06-08T15:21:17.973Z,0.80
2019-06-08T15:23:47.221Z,1.30
2019-06-08T15:26:23.943Z,1.00
2019-06-08T15:28:48.390Z,1.00
2019-06-08T15:31:18.369Z,1.00
2019-06-08T15:33:48.227Z,1.15
2019-06-08T15:36:20.256Z,1.07
2019-06-08T15:38:48.002Z,0.90
2019-06-08T15:41:20.774Z,1.40
2019-06-08T15:43:48.131Z,1.10
2019-06-08T15:46:18.385Z,0.90
2019-06-08T15:48:48.552Z,1.22
2019-06-08T15:51:17.144Z,1.20
2019-06-08T15:53:47.556Z,1.27
2019-06-08T15:56:15.642Z,2.05
2019-06-08T15:58:44.032Z,1.40
2019-06-08T16:01:14.764Z,1.20
2019-06-08T16:03:42.864Z,1.07
2019-06-08T16:06:11.285Z,1.10
2019-06-08T16:08:59.016Z,0.95
2019-06-08T16:11:28.219Z,0.90
2019-06-08T16:13:56.743Z,1.07
2019-06-08T16:16:25.491Z,0.85
2019-06-08T16:18:54.144Z,1.12
2019-06-08T16:21:22.960Z,1.10
2019-06-08T16:23:51.743Z,1.00
2019-06-08T16:26:20.125Z,1.27
2019-06-08T16:28:48.515Z,1.10
2019-06-08T16:31:17.169Z,0.85
2019-06-08T16:33:45.601Z,1.10
2019-06-08T16:36:14.016Z,0.80
2019-06-08T16:38:42.718Z,0.98
2019-06-08T16:41:11.109Z,1.10
2019-06-08T16:43:39.512Z,1.10
2019-06-08T16:46:07.905Z,1.07
2019-06-08T16:48:36.392Z,1.10
2019-06-08T16:51:04.815Z,1.15
2019-06-08T16:53:34.140Z,0.90
2019-06-08T16:56:02.639Z,1.32
2019-06-08T16:58:32.126Z,1.00
2019-06-08T17:01:00.590Z,1.30
2019-06-08T17:03:29.296Z,1.50
2019-06-08T17:05:58.052Z,1.50
2019-06-08T17:08:26.477Z,1.05
2019-06-08T17:10:54.860Z,1.10
2019-06-08T17:13:23.257Z,1.30
2019-06-08T17:15:51.671Z,1.30
2019-06-08T17:18:20.079Z,1.40
2019-06-08T17:20:48.490Z,1.40
2019-06-08T17:23:16.925Z,1.17
2019-06-08T17:25:45.338Z,0.90
2019-06-08T17:28:13.990Z,1.10
2019-06-08T17:30:42.703Z,1.27
2019-06-08T17:33:11.088Z,1.00
2019-06-08T17:35:39.891Z,1.70
2019-06-08T17:38:08.330Z,2.00
2019-06-08T17:40:37.989Z,2.30
2019-06-08T17:43:06.951Z,1.25
2019-06-08T17:45:36.310Z,1.27
2019-06-08T17:48:04.913Z,1.17
2019-06-08T17:50:34.606Z,0.95
2019-06-08T17:53:03.359Z,0.80
2019-06-08T17:55:33.109Z,1.00
2019-06-08T17:58:01.797Z,1.00
2019-06-08T18:00:30.275Z,1.00
2019-06-08T18:03:00.619Z,1.40
2019-06-08T18:05:28.908Z,0.90
2019-06-08T18:07:57.951Z,1.20
2019-06-08T18:10:27.722Z,0.80
2019-06-08T18:12:58.764Z,0.90
2019-06-08T18:15:28.385Z,0.93
2019-06-08T18:17:57.707Z,1.00
2019-06-08T18:20:28.267Z,1.07
2019-06-08T18:22:57.810Z,1.02
2019-06-08T18:25:27.911Z,1.00
2019-06-08T18:28:06.619Z,0.93
2019-06-08T18:30:27.644Z,1.10
2019-06-08T18:32:58.095Z,1.02
2019-06-08T18:35:27.820Z,1.02
2019-06-08T18:37:57.885Z,0.90
2019-06-08T18:40:27.299Z,1.00
2019-06-08T18:42:57.612Z,1.35
2019-06-08T18:45:27.623Z,1.02
2019-06-08T18:47:57.734Z,1.30
2019-06-08T18:50:28.534Z,2.00
2019-06-08T18:52:57.986Z,2.00
2019-06-08T18:55:27.700Z,1.85
2019-06-08T18:57:57.187Z,1.90
2019-06-08T19:00:39.758Z,1.10
2019-06-08T19:03:07.266Z,1.07
2019-06-08T19:05:40.238Z,1.22
2019-06-08T19:08:09.955Z,1.32
2019-06-08T19:10:39.458Z,1.57
2019-06-08T19:13:08.697Z,1.60
2019-06-08T19:15:42.220Z,1.80
2019-06-08T19:18:08.850Z,1.52
2019-06-08T19:20:41.263Z,1.40
2019-06-08T19:23:09.084Z,1.85
2019-06-08T19:25:42.139Z,2.70
2019-06-08T19:28:07.948Z,3.12
2019-06-08T19:30:39.396Z,3.55
2019-06-08T19:33:07.356Z,2.50
2019-06-08T19:35:35.965Z,1.70
2019-06-08T19:38:04.335Z,1.82
2019-06-08T19:40:33.079Z,1.82
2019-06-08T19:43:01.688Z,1.52
2019-06-08T19:45:30.139Z,2.10
2019-06-08T19:47:58.519Z,2.15
2019-06-08T19:50:28.744Z,2.17
2019-06-08T19:52:58.035Z,2.22
2019-06-08T19:55:26.593Z,2.15
2019-06-08T19:57:57.061Z,2.10
2019-06-08T20:00:27.511Z,1.82
2019-06-08T20:02:58.069Z,1.90
2019-06-08T20:05:27.889Z,2.30
2019-06-08T20:07:57.541Z,2.10
2019-06-08T20:10:27.933Z,2.05
2019-06-08T20:12:57.630Z,2.20
2019-06-08T20:15:26.394Z,2.00
2019-06-08T20:17:57.326Z,1.85
2019-06-08T20:20:27.729Z,1.98
2019-06-08T20:22:55.311Z,2.50
2019-06-08T20:25:23.958Z,2.30
2019-06-08T20:27:53.601Z,2.55
2019-06-08T20:30:22.198Z,2.40
2019-06-08T20:32:52.398Z,3.00
2019-06-08T20:35:21.365Z,3.08
2019-06-08T20:37:50.040Z,2.92
2019-06-08T20:40:18.423Z,2.98
2019-06-08T20:42:49.947Z,3.22
2019-06-08T20:45:17.305Z,2.70
2019-06-08T20:47:49.447Z,2.87
2019-06-08T20:50:17.651Z,3.27
2019-06-08T20:52:47.262Z,3.67
2019-06-08T20:55:17.495Z,3.85
2019-06-08T20:57:48.146Z,3.45
2019-06-08T21:00:16.364Z,3.20
2019-06-08T21:02:46.380Z,2.83
2019-06-08T21:05:14.928Z,2.42
2019-06-08T21:07:43.806Z,2.08
2019-06-08T21:10:13.275Z,1.80
2019-06-08T21:12:42.004Z,1.72
2019-06-08T21:15:10.798Z,2.30
2019-06-08T21:17:39.585Z,2.08
2019-06-08T21:20:08.649Z,2.47
2019-06-08T21:22:37.135Z,2.12
2019-06-08T21:25:08.895Z,2.20
2019-06-08T21:27:38.516Z,2.42
2019-06-08T21:30:20.324Z,2.20
2019-06-08T21:32:39.124Z,2.27
2019-06-08T21:35:07.792Z,2.02
2019-06-08T21:37:37.744Z,2.20
2019-06-08T21:40:08.488Z,2.02
2019-06-08T21:42:37.195Z,1.87
2019-06-08T21:45:09.725Z,2.15
2019-06-08T21:47:38.113Z,3.08
2019-06-08T21:50:08.066Z,3.60
2019-06-08T21:52:36.628Z,2.90
2019-06-08T21:55:07.258Z,3.70
2019-06-08T21:57:37.122Z,3.60
2019-06-08T22:00:27.180Z,3.15
2019-06-08T22:02:40.800Z,2.98
2019-06-08T22:05:09.753Z,3.12
2019-06-08T22:07:38.148Z,2.83
2019-06-08T22:10:08.334Z,2.27
2019-06-08T22:12:40.211Z,2.35
2019-06-08T22:15:07.801Z,2.50
2019-06-08T22:17:38.345Z,2.45
2019-06-08T22:20:08.217Z,2.37
2019-06-08T22:22:37.889Z,2.30
2019-06-08T22:25:08.133Z,2.22
2019-06-08T22:27:38.216Z,2.42
2019-06-08T22:30:13.402Z,2.60
2019-06-08T22:32:38.584Z,2.33
2019-06-08T22:35:08.275Z,2.40
2019-06-08T22:37:37.992Z,2.37
2019-06-08T22:40:08.323Z,2.60
2019-06-08T22:42:37.578Z,2.00
2019-06-08T22:45:08.366Z,2.60
2019-06-08T22:47:38.834Z,2.37
2019-06-08T22:50:07.907Z,2.27
2019-06-08T22:52:37.541Z,2.30
2019-06-08T22:55:10.512Z,2.45
2019-06-08T22:57:37.657Z,2.55
2019-06-08T23:00:16.508Z,2.67
2019-06-08T23:02:40.490Z,1.85
2019-06-08T23:05:09.476Z,2.30
2019-06-08T23:07:37.906Z,2.30
2019-06-08T23:10:08.984Z,2.10
2019-06-08T23:12:38.331Z,2.22
2019-06-08T23:15:08.391Z,2.83
2019-06-08T23:17:38.629Z,2.65
2019-06-08T23:20:08.733Z,1.98
2019-06-08T23:22:38.460Z,2.35
2019-06-08T23:25:09.439Z,2.35
2019-06-08T23:27:38.162Z,2.20
2019-06-08T23:30:10.284Z,3.50
2019-06-08T23:32:39.232Z,2.27
2019-06-08T23:35:09.373Z,2.47
2019-06-08T23:37:37.991Z,2.22
2019-06-08T23:40:07.700Z,2.55
2019-06-08T23:42:38.374Z,2.05
2019-06-08T23:45:10.650Z,2.17
2019-06-08T23:47:38.953Z,2.02
2019-06-08T23:50:11.228Z,2.10
2019-06-08T23:52:38.613Z,2.22
2019-06-08T23:55:11.732Z,2.37
2019-06-08T23:57:39.061Z,2.20
